福島空港

2019/06/24

空撮 VNL917成田-新千歳 2019/5/25 sat

もう忘れてしまいそうですが、5月に北海道へ行った往路の空撮を。

20190525_jw917_00rjaa

2タミでのんびりし過ぎて、あやうくゲートクローズ直前に搭乗

本日は、JW917 JA14VA

20190525_jw917_01rjaa

成田の計画が変更されてB滑走路が無くなったので、そこに駐機場にする工事が進んでいます。

20190525_jw917_02ja381a

RW16Lに向かっていると、およよホヌ様のお帰り

20190525_jw917_03ja381a

当方が少し早くて、スポットインは頭だけ

20190525_jw917_04n845mh

N845MH 朝見たリボンは貨物地区でお休み中

20190525_jw917_05rjaa16r

では16Rにラインナップ

20190525_jw917_06rjaa

順調にテイクオフ

20190525_jw917_07kujuu

九十九里でライトターン

20190525_jw917_08rjaa

空港の西側をクライム

20190525_jw917_09rjak

霞ケ浦飛行場

20190525_jw917_10rjtu

宇都宮飛行場

20190525_jw917_11rjsf

遠くに福島空港

20190525_jw917_12inawashiro

猪苗代湖をパス 途中何機か空対空がありましたが、どれもブレブレ

20190525_jw917_13iwate

岩手山頂上と岩手演習場

20190525_jw917_14rjsh

八戸飛行場

20190525_jw917_15rjsm

三沢飛行場

20190525_jw917_16r

R130天ケ森射爆場

20190525_jw917_17do

先の地震でいたるところで山様が変わっています。厚真ダム

20190525_jw917_18c0102

見納めとなる旧政府専用機

20190525_jw917_19rjcc

19Lファイナル

20190525_jw917_20rjcc19r

クロス19R

20190525_jw917_21ja737t

後続はスカイマーク JA737T

20190525_jw917_22ja11va

PushPushPull

20190525_jw917_23rjcc

お隣には成田を後にたった春秋が到着

 

| | コメント (0)

2017/05/28

DC-3 福島空港 2017/5/27 sat

いろいろなラッキーが重なり、ワールドツアー中のブライトリングのDC-3を福島空港で見る機会が叶った。

RJSF 270200Z 35008KT 320V030 9999 -SHRA FEW010 BKN040 BKN060 15/11 Q1009

20170527_rjsf_00hbirj

とにかく時間が出来たので、高速を走って福島空港は、見晴らし山に直行。丁度2回目のフライトから帰ってきたところに間に合った。

20170527_rjsf_01hbirj

ダウンウインドからオーバーフィールドで360度周回。

20170527_rjsf_02hbirj

音は思ったよりも静かで、おとなしいものだった。

20170527_rjsf_03hbirj

ゆっくりとしたスピードで、ファイナル

20170527_rjsf_04hbirj

キュッっと音を立てて接地

20170527_rjsf_05hbirj

後姿も素敵

20170527_rjsf_06hbirj

遠くに郡山の町並みが見える

20170527_rjsf_07ja41da

JA41DA DA40 ALP

合間には、地元の機体が操縦訓練

20170527_rjsf_08hbirj

トコトコやってくる感じ・・

20170527_rjsf_09hbirj

遠目に見ても、でかい

20170527_rjsf_10hbirj

これが2回目のフライトだとか・・ それも郡山周辺を廻ってくるだけです。

20170527_rjsf_11hbirj

定位置に止まって・・

20170527_rjsf_12ja41da

DA訓練終了

20170527_rjsf_13hbirj

搭乗客が降機して、記念撮影中。

20170527_rjsf_14hbirj

手前のテントでアテンドしている

RJSF 270300Z 33004KT 9999 FEW010 BKN035 BKN070 15/11 Q1009

20170527_rjsf_15hbirj

テント前に降りてきました。

20170527_rjsf_16hbirj

見事な立看

20170527_rjsf_17hbirj

気軽に見てるけど、ワールドツアーなんだよね

20170527_rjsf_18hbirj

レベルから見てみましょ

20170527_rjsf_19hbirj

パイロットさまたち

20170527_rjsf_20hbirj

前から、幾分でぶっとしている。

20170527_rjsf_21hbirj

翼も大きいね

20170527_rjsf_22hbirj

乗降ドアは、右側スターボードなんだね

20170527_rjsf_23ja03rj

ターミナル送迎デッキから 向こうにアイベックス

20170527_rjsf_24ja03rj

IBX75 RJOO-RJSF JA03RJ CRJ-200ER

20170527_rjsf_25ja03rj

20170527_rjsf_26ja03rj

数少ない定期便

20170527_rjsf_27himawari

折り返しは、ひまわりでお見送り

20170527_rjsf_28ja03rj

20170527_rjsf_29ja03rj

20170527_rjsf_30ja03rj

IBX76 RJSF-RJOO JA03RJ CRJ-200ER

20170527_rjsf_31hbirj

さて、午後のフライトが始まるようです。

RJSF 270400Z 32005KT 260V350 9999 FEW015 BKN035 BKN070 16/11 Q1009

20170527_rjsf_32hbirj

綺麗なお姉さんに先導されて・・

20170527_rjsf_33hbirj

いざ、乗り込み

20170527_rjsf_34hbirj

準備オーケー

20170527_rjsf_35hbirj

ぶるるるるー

20170527_rjsf_36hbirj

第2エンジンスタート

20170527_rjsf_37hbirj

しばらくすると、あっけなくタクシー

20170527_rjsf_38hbirj

移動すると、キーコキーコ音がします

20170527_rjsf_39hbirj

美人さんですなぁ

20170527_rjsf_40hbirj

いってらっしゃーい

20170527_rjsf_41hbirj

お尻も見て欲しい

20170527_rjsf_42hbirj

魅力的

20170527_rjsf_43hbirj

いよいよ滑走・・・

20170527_rjsf_44hbirj

お尻を跳ね上げて・・

20170527_rjsf_45hbirj

ブーン・・・

20170527_rjsf_46hbirj

前脚は、引っ込みます

20170527_rjsf_47hbirj

郡山方面をしばらく周回して、帰ってきた。

20170527_rjsf_48hbirj

20170527_rjsf_49hbirj

20170527_rjsf_50hbirj

向こうの丘でも、見守り人多数。

20170527_rjsf_51hbirj

20170527_rjsf_52hbirj

20170527_rjsf_53hbirj

20170527_rjsf_54hbirj

20170527_rjsf_55hbirj

20170527_rjsf_56hbirj

20170527_rjsf_57hbirj

20170527_rjsf_58hbirj

20170527_rjsf_59hbirj

20170527_rjsf_60hbirj

20170527_rjsf_61hbirj

チョークをして、本日のフライトは終了の模様。

RJSF 270500Z VRB02KT 9999 FEW020 BKN035 BKN070 16/11 Q1009

20170527_rjsf_62hbirj

HB-IRJ DC-3A

20170527_rjsf_63hbirj

これにて、お別れです。

20170527_rjsf_64ja6212

JA6212 EC-130

訓練兼ねてDC3を見に来たのかな?

20170527_rjsf_65hbirj

この先も元気にフライトしてください。



| | コメント (0) | トラックバック (0)

2014/05/24

人騒がせなコンボイ君 福島空港 2014/5/24 sat

今日は、H2A-F24による「だいち2号」の打ち上げ成功や、富山駅における北陸新幹線レール締結式等、ニュース性の情報がいっぱいだ。

そこで、ニュース性のこの話題から・・・

一昨日の夕方、ツイに福島空港 米軍 等のキーワードが踊りだした。すわ、米軍機が福島空港に緊急着陸で火災発生か? との一報だったが、ヒューズが切れて焦げ臭いので緊急着陸したものだった。夜の空港に消防車が集結して、大騒動となっていた。 続報では、一日で修理が終わらず、今日にでも飛びそうだと聞いた。道草で、チョコット福島空港を覗いてみた。

RJSF 240600Z 25009KT 210V280 9999 FEW040 BKN/// 23/10 Q1014

20140524_rjsf_00ja001z

15時過ぎに展望丘に直行したら、なにやらジェットサウンド!

JA001Z C510

20140524_rjsf_01n163556

エプロンには、ビーチがいました。人だかりで、まだ作業中。

20140524_rjsf_02n163556

ゲート前に下りて、間近に。聞くところによると、発電機の交換をした模様。

20140524_rjsf_03n163556

20140524_rjsf_04n163556

おお、なにやら修理も終盤。カウリングを持ってきました。

20140524_rjsf_05f

ゲート前には、マスコミ連中と暇な地元の人が眺めています。パトカーは警戒中。

20140524_rjsf_06n163556

全て工具類も人も乗り込んで・・・・

20140524_rjsf_07n163556

さぁ、廻るか・・・

20140524_rjsf_09n163556

快調にエンジンスタート、三沢までIFRクリアランスをもらって・・

RJSF 240700Z 25009KT 210V290 9999 FEW040 BKN/// 23/09 Q1014

20140524_rjsf_10n163556

COMBOY7064 Bn163556 UC-12F USN

20140524_rjsf_11n163556

20140524_rjsf_12n163556

RW19へ

20140524_rjsf_13n163556

隙間から撮っていたら・・・ こんな絵しか撮れんだ、グスン

20140524_rjsf_14n163556

リバーサルデパーチャーなので、福島VORをヒットして北上していった。グロホちゃんが三沢で待っているよ!

| | コメント (0) | トラックバック (0)

2014/03/17

FINAL747福島物語 福島空港 2014/3/15 sat

仙台で卒業フライトの離陸を見送って、陸路福島へ移動です。さーて、間に合うか・・・

福島空港駐車場に着いて、装備を準備して歩き出したら、あらら・・ 早くも入感。

あれこれ、撮影ポイントを考えながら、現地を偵察する暇も泣く。

RJSF 150400Z 31009KT 270V360 9999 FEW025 SCT040 05/M05 Q1017

20140315_rjsf_00ja8961

ウルトラマン空港に新しいモニュメント、ビートル。只今設置工事中。

20140315_rjsf_01ja8961

13:35 福島VORをヒット 直上は、雲があり薄く機影が見えただけ。アウトバンドを進出中。

20140315_rjsf_02ja8961

もう、場所を選べない・・・ 思った以上に低空でのローパスで、ガー フェンスにかぶっちゃった。

20140315_rjsf_03ja8961

到着が早まったので、エプロン会場の開放も泥縄・・ インバウンドしてくるころに開放され、どっと人が流れ込んだ。

20140315_rjsf_04ja8961

なんとか隙間確保 T/D

20140315_rjsf_05ja8961

20140315_rjsf_06ja8961

20140315_rjsf_07ja8961

20140315_rjsf_08ja8961

誘導路をカクカクしてくれるので、いろんな角度から撮影できる。

20140315_rjsf_09ja8961

20140315_rjsf_10ja8961

20140315_rjsf_11ja8961

20140315_rjsf_12ja8961

ANA9022 RJSS-RJSF JA8961 B747-481D

20140315_rjsf_13ja8961

エプロン地区に入ると・・

20140315_rjsf_14ja8961

警備のお姉ちゃんも、かわいく配置。

20140315_rjsf_15ja8961

機長がプレスショットとインタビューにエプロンでポーズ。

20140315_rjsf_16ja8961

15時前、卒業フライトに備えて機体点検の機長は、エプロンで帽子を振って挨拶してくれた。

RJSF 150600Z 36013KT 9999 FEW030 05/M04 Q1017

20140315_rjsf_17ja8961

15:46 プッシュバック スタッフのお見送りで

20140315_rjsf_18ja8961

20140315_rjsf_19ja8961

20140315_rjsf_20ja8961

20140315_rjsf_21ja8961

20140315_rjsf_22ja8961

ANA2053 RJSF-RJSF JA8961 B747-481D

20140315_rjsf_23ja859a

ジャンボを待たせて、-8が着陸。 ANA1695/JA859A

20140315_rjsf_24ja8961

以外に早くエアボーン アワワ

20140315_rjsf_25ja8961

左に捻って FUKUSHIMA REVERSAL ONE DEPARTURE をクライム

20140315_rjsf_26ja8961

直上を通過して、いってらっしゃい!

20140315_rjsf_27terminal

さーて、ようやくターミナル内探検。

20140315_rjsf_28terminal

卒業フライトの受付は、国際線カウンターで。

20140315_rjsf_29terminal

RJSF 150800Z 01011KT 9999 FEW030 03/M04 Q1017

20140315_rjsf_30ja8961

17:12 卒業フライトが帰ってきて、ローアプローチ

20140315_rjsf_31ja8961

20140315_rjsf_32ja8961

西側の丘の上にも人が沢山。夕陽の中にシルエットで浮かぶ。

20140315_rjsf_33ja8961

20140315_rjsf_34ja8961

20140315_rjsf_35ja8961

20140315_rjsf_36ja8961

20140315_rjsf_37ja8961

20140315_rjsf_38ja8961

20140315_rjsf_39ja8961

20140315_rjsf_40ja8961

20140315_rjsf_41ja8961

卒業フライトも無事終了。

20140315_rjsf_42ja8961

お絵かき部隊も、機内から降りる招待客にお手降り降り。

20140315_rjsf_43ja8961

飛行場灯台にも灯がともって・・ エプロン会場は閉鎖に。

20140315_rjsf_44ja8961

ゆっくりと陽が落ちて、夜の帳が降りてくる。

20140315_rjsf_45ja8961

お見送りは、ターミナルのデッキでと・・ 着陸時何か落としたと・・ 珍しい2F席の非常口を開けて何か点検していた。

20140315_rjsf_46ja8961

AIRDOのベア・ドゥドリーム号が新千歳へ帰っていく。

RJSF 151000Z 03006KT 010V080 9999 FEW030 01/M04 Q1018

20140315_rjsf_47ja8961

19:40 プッシュバックが始まり、機内からもペンライトが降られて「さようなら」だ。

20140315_rjsf_48ja8961

20140315_rjsf_49ja8961

スタッフも勢ぞろいして、お見送り。

20140315_rjsf_50ja8961

20140315_rjsf_51ja8961

20140315_rjsf_52ja8961

20140315_rjsf_53ja8961

ANA9024 RJSF-RJAA JA8961 B747-481D

成田へ向かい、翌日は熊本へのチャーターフライトだね。

20140315_rjsf_54final

地上職員の皆さんは、送迎デッキに最後の挨拶をして引上げた。

20140315_rjsf_55final

卒業フライトのスケジュールは以上であった。

| | コメント (0) | トラックバック (0)

2012/03/11

追悼 震災後一年 2012/3/11 sun

今朝のNHKでその彼女は、語っていた。想えば1年前の朝、博多のホテルのテレビで、その彼女は、ニュースを読んでいた。小生は、天気予報を確認しながら、ワクワクして出かけたのであった。

2011/3/11 fri

S0100_20110311_rjff_b5501

遠く離れた福岡空港では、地震が起きたことも知らず、国際線ビルで撮影をしていた。丁度この中国東方航空機が離陸したのが、その時であった。

S0101_20110311_rjff_bi03

S0102_20110311_rjff_bi05

翌日3月12日は、九州新幹線鹿児島ルートの開業日。開業に華を添えるため、ブルーインパルスが招聘され、前日の事前フライトを実施した。

なにも知らずに15時半ごろまで撮影の後、ゆっくり歩いてホテルまでもどった。何気にテレビを点けたらNHKのカメラが八戸港に押し寄せる津波を中継していた。あっあ、大きな船が岸壁の上に押し上げられている。時間が止まった。

2011/3/12 sat

S0103_20110312_rjff_can

テレビで情報収集していた小生は、事態の甚大を認識し、翌日すぐに帰郷することとした。福岡空港に着くと、関東以北への便は、のきなみ欠航となっていた。

S0104_20110312_rjff_sia

福岡空港にもダイバート機や欠航機が溢れていたが、小生は、なんとか小松便に搭乗できた。

S0105_20110312_rjnk_ja731j

小松空港に着くと、昨日のヨーロッパからの成田便が3便ダイバートしており、順次成田に向かっていった。彼等が昨日、途方にくれながら小松にやってきて、一晩過ごしたことは、後に知ることだった。

S0106_20110312_rjnk_16p3c

小松空港上空を北に向かう、レスキューレインボー

2011/3/19 sat

S0107_20110319_rjnt_16b5145

3月12日に自宅にたどりついたところで、なにやら原発が怪しいと聞こえてくる。NTVが最初の水素爆発を中継していて、戦慄が走っていた。確かな情報がないまま、外国人の避難が始まり、中国人の大量帰国が押し寄せてきた。成田や関空等の大空港だけではさばけず、関東、東北からの避難民が富山空港にもやってきた。この日南方のA319が4機、上海が1機臨時便を出して、深夜まで運用した日となった。

2011/4/4 mon

S0108_20110404_hokuriku_r05

いきなり鉄道の絵だが、原発事故による立入制限により、国内の鉄道にブレーキシューを供給している会社が操業停止となっていた。古い車両が多い北陸線は、まともに影響を受けて、電車の延命のため、臨時にDCによる運行が行われた。

2011/4/12 tue

S0109_20110412_rjaa_08ja735j

震災、原発事故とは関係なく、この春も桜が咲いた。成田のさくらの山では、花見客で賑わっていた。著名な航空カメラマン諸氏も、来場していた。

2011/5/2 mon

S0110_20110502_rjnt_04b16828

リーマンショク以降落ち込んでいた経済活動が、震災により益々悪くなっていて、GWのチャーターは、華信のこの往復2便だけであった。いろいろあるけど、やってきてくれる台湾に日本は、感謝しないといけないのだ。

2011/6/9 thu

S0111_20110609_rjah_00ibarakiap

3月11日は、東日本大震災、発災の日であるが、実は茨城空港開港の日でもある。地震当日、天井板が崩れ落ちた映像が流れたが、開港一周年の取材でマスコミがいたからだ。天井板は、はずされ、そのままでもお洒落な空港ターミナルである。

2011/6/18 sat

S0112_20110618_rjnk_28ja338j

地震に伴う津波が襲って壊滅的破壊を受けた仙台空港は、米軍等の迅速な活動等があって4月13日からエアラインの便が再開した。再開した機体には、各社メッセージロゴを入れて運行している。これは、現在も続いている。 小松空港にて。

2011/7/18 mon

S0113_20110718_nanao_06lsu4172

S0114_20110718_nanao_08lsu4172

震災直後、物資輸送で駆り出されていた輸送艦「のと」が任務も一段落して、七尾港に寄港した。艦内には災害救助の活動内容や感謝の言葉が展示されていた。老体に無痛っての最後の過酷なお勤めであったであろう。この「のと」は、この春で退役である。長い間お疲れ様でした。

2011/8/6 sat

S0115_20110806_rjcj_00bi

仙台空港と同様に壊滅的被害を受けた松島飛行場。九州に展開していて、難を逃れたブルーインパルスのT4は、展開先の芦屋基地で足止めとなっていた。飛行展示が再開できるのかも、危ぶまれていたが、芦屋を基点に、見島や築城基地で訓練が再開できた。そして、待ちに待った一般公開は、8月7日の千歳基地航空祭となった。前日の予行飛行で元気な姿を見て、涙したものだ。

2011/8/7 sun

S0116_20110807_rjcj_a03c481004

震災時の物資輸送に寝食を忘れて飛び回った輸送航空隊のC1輸送機にも、「がんばれ日本」のメッセージ

S0117_20110807_rjcj_f04mmf

千歳航空祭は、F15によるミッシングマン・フォーメーションで追悼の意を表した。

S0118_20110807_rjcj_bi10

この日の展示は、新しく飛行班長となった平岡三佐が初めて指揮をとった。

S0119_20110807_rjcj_bi19

まだ、背面等のアクロバット飛行はなかったが、とにかく飛んでくれたことが嬉しくて、空を眺めていた。

2011/11/3 thu

S0120_20111103_rjtj_f04tmf

首都圏の航空祭で、ひときわ人を集める入間航空祭。ここでも、航空総隊司令部飛行隊のミッシングマン・フォーメーションで追悼した。

S0121_20111103_rjtj_f37h674495

震災救助や物資輸送に活躍したヘリコプター空輸隊は、立ち上がれニッポンのメッセージ入りの貨物を懸架して飛行した。

S0122_20111103_rjtj_38bi

入間までに、東松島、三沢、築城とフライトを積んできたブルーインパルスは、先の築城からフルアクロを実施していて、当日も曇天ながら1区分のフライトを披露した。

2011/11/13 sun

S0123_20111113_obaradai_04kanetsu

復興構想会議議長に就任した五百旗頭真・防衛大校長。防大祭での受閲。

S0124_20111113_obaradai_bi

青空の下、ブルインパルスの展示飛行が実施された。

2011/12/7 wed

S0125_20111207_rjsf_ja03rj

その後の福島空港を覗いた。ほぼ日常に戻っており、「がんばれ日本」のメッセージをつけたIBEXのCRJが飛んでいた。

2011/12/10 sat

S0126_20111210_roah_b09bi

シーズン最後の那覇航空祭にもブルーインパルスは展開した。前日は曇天ながらも予行が行われた。

S0127_20111210_roah_bi565745

那覇でのフライトでブルーインパルス最後となる、富山出身「はまい君」の4番機

2011/12/11 sun

S0128_20111211_roah_b34bi

「はまい君」最後のフライト、ガンバ!

S0129_20111211_roah_b55bi

無事、フライト終了。たいへんな今シーズンでしたが、来シーズンに向けて早く松島基地が復旧できることを祈っています。

2011/12/12 mon

S0130_20111212_roah_07bi1b

S0131_20111212_roah_08bi5

航空祭翌日、帰還の日です。帰還先は、芦屋基地。一年間、お疲れ様でした。

2011/12/17 sat

S0132_20111217_rjnt_03ja8275

富山もいよいよ雪のシーズンとなり、雪模様の中、「心をひとつに、がんばろう ニッポン」のメーセージ機もやってくる。

2012/1/19 thu

S0133_20120119_rjnt_11b28037

年越して、それでもやってきてくれるのは台湾のチャーター。復活した遠東航空がやってきた。春からは、中華の定期便も始まり、やっぱり台湾に感謝する。

被災の日から、震災に係る小生のトピックスを並べてみた。復旧・復興への道のりは、またまだ長いが、一つづつ道標をクリアしていってほしい。新しい年度のシーズンを前に、常に追悼の念を忘れず、未来を見て歩むのみだ。

| | コメント (0) | トラックバック (0)

2011/12/08

近況 福島空港 2011/12/7 wed

12月にから、東北地方の高速道路の無料措置が変更となった。仕事に一区切りがついたので、状況確認に福島空港に出かけた。途中、磐越道とあぶくま高原道路では、ようやく本復旧工事が始まり、交通量も結構あった。先に福島空港に行ったのは、まだ鶴丸が飛んでいる時代だった。

METAR RJSF 070000Z 01011KT 9999 FEW040 05/M00 Q1021A3016

到着は、7時過ぎ。ウルトラマンマックスが凛々しく朝日に佇む。

20111207_rjsf_00max

20111207_rjsf_01front

カラフルな表示だが、伊丹と千歳のみの路線だ。

20111207_rjsf_02muu

機体除雪車μも、スタンバイOK!

20111207_rjsf_03b747

1Fフロアでは、ボーイング747企画展が催されている。

20111207_rjsf_10ja03rj

20111207_rjsf_11ja03rj

IBX71 RJOO-RJSF JA03RJ CRJ200

20111207_rjsf_12ja52da

JA52DA DA42 ALP

20111207_rjsf_13ja03rj

スポット#1はCRJ用搭乗橋が設置されている。

20111207_rjsf_14ja03rj

20111207_rjsf_15ja03rj

IBX72 RJSF-RJOO JA03RJ CRJ200

20111207_rjsf_16ja906a_2

ILS訓練でやってきた海保仙台航空基地所属機。震災の生き証人だ。
JA906A B412 JCG

20111207_rjsf_17ja8504

20111207_rjsf_18ja8504

ADO84 RJCC-RJSF JA8504 B737-54K

20111207_rjsf_19ja969a_2

20111207_rjsf_20ja969a

まだ愛称が記入されていないことから、引渡し前の機体かもしれない。いずれ仙台か新潟に配属されるかも。
JA969A AW139 JCG

20111207_rjsf_21ja52da

JA52DA DA42 ALP

20111207_rjsf_22ja8504

20111207_rjsf_23ja03rj

ADO85 RJSF-RJCC JA8504 B737-54K

20111207_rjsf_24ja03rj

JA969A AW139 JCG

20111207_rjsf_25ja03rj

IBX75 RJOO-RJSF JA03RJ CRJ200

20111207_rjsf_26fukushima

| | コメント (0) | トラックバック (0)

2006/04/16

空想出 福島空港 2000/4/24

今日の富山:気がつくと昨日15日と16日は砺波で、第11回チューリップバルーン大会が開かれていたようだ。どうしても動きのないものに興味がわかずスカイスポーツではあるが出撃にはいたらず。また、本日15日はおとなり新潟県は上越市の陸上自衛隊高田駐屯地での創立記念日であったのだが、朝天候が悪かったので、これも出撃せず。チョットおっくうになっているようです。午後から太陽も見えて近所の桜が満開のころです。

20000424_rjsf_ja826920000424_rjsf_sa2k20000424_rjsf_c90a小松島から伊丹までもどってなんと、そのまま福島までいって帰った軌跡でした。自分ながらよくやるわぁといったところ 福島ではラッキーなことにCABのフライトチェックが行われ、SAABが超低空で何度も飛行しました。

左:伊丹から乗ったJALのB6 JA8269 中:フライトチェッカー SAAB2000 右:仙台の航大から航法訓練で飛来したビーチC90A このあと新潟に向かいました

20000424_rjsf_terminal20000424_rjsf_vor20000424_rjsf_cab福島空港の主要設備 左:ターミナルビル 中:福島VOR 左:CAB庁舎

今回の小松島遠征は随分と欲張ったものでした。ここで、行程を整理しておきたいと思います。

4/22 羽田-JAL481-岡山-JR-徳島 4/23徳島-バス-小松島基地-タクシ、JR、バス-徳島-JAC436-伊丹 4/24伊丹-JAL833-福島-バス-郡山-JR-東京

| | コメント (0) | トラックバック (0)

その他のカテゴリー

BI Boading record aircraft Boading record ship FlightTracking lighthouse NAVAIDS RJNT LOG SKY MASSAGE US NAVY USMC うみ おか そら てつ アクシデント エアロック チーム室屋 三沢飛行場 上五島空港 下地島空港 下総飛行場 与那国空港 中標津空港 中部国際空港 久米島空港 五島福江空港 仙台空港 伊江島空港 但馬空港 佐賀空港 入間飛行場 八尾空港 八戸飛行場 出雲空港 函館空港 利尻空港 北九州空港 十勝飛行場 千歳飛行場 博物館 厚木飛行場 名古屋飛行場 喜界空港 嘉手納飛行場 場外 壱岐空港 大分空港 大湊飛行場 大阪国際空港 大館能代空港 天草空港 奄美空港 奥尻空港 宇部山口空港 宇都宮飛行場 宮古空港 宮崎空港 富山空港 小松島飛行場 小松飛行場 屋久島空港 山形空港 岐阜飛行場 岡山空港 岩国飛行場 帯広空港 広島空港 庄内空港 徳之島空港 徳島飛行場 成田国際空港 新潟空港 新田原飛行場 旭川空港 旭川飛行場 明野飛行場 普天間飛行場 木更津飛行場 札幌飛行場 東京国際空港 松山空港 松島飛行場 松本空港 横田飛行場 沖永良部空港 波照間空港 浜松飛行場 海上保安庁 海上自衛隊 海外 熊本空港 百里飛行場 相馬原飛行場 石垣空港 石見空港 礼文空港 神戸空港 福井空港 福岡空港 福島空港 秋田空港 種子島空港 空撮 立川飛行場 築城飛行場 美保飛行場 能登空港 舞鶴飛行場 航空自衛隊 芦屋飛行場 花巻空港 調布飛行場 警務消防 那覇空港 釧路空港 長崎空港 関西国際空港 陸上自衛隊 隠岐空港 霞ヶ浦飛行場 霞目飛行場 青森空港 静岡空港 静浜飛行場 飛行場跡 飛行船 鹿児島空港 鹿屋飛行場